sensor_id;sensor_type;location;lat;lon;timestamp;P1;durP1;ratioP1;P2;durP2;ratioP2
5195;SDS011;2617;51.006;12.436;2023-06-14T00:00:44;3.07;;;2.80;;
5195;SDS011;2617;51.006;12.436;2023-06-14T00:05:48;3.70;;;3.08;;
5195;SDS011;2617;51.006;12.436;2023-06-14T00:10:51;3.40;;;3.03;;
5195;SDS011;2617;51.006;12.436;2023-06-14T00:15:53;4.00;;;3.23;;
5195;SDS011;2617;51.006;12.436;2023-06-14T00:20:56;4.83;;;3.10;;
5195;SDS011;2617;51.006;12.436;2023-06-14T00:25:59;6.83;;;3.70;;
5195;SDS011;2617;51.006;12.436;2023-06-14T00:31:01;4.90;;;3.37;;
5195;SDS011;2617;51.006;12.436;2023-06-14T00:36:04;3.43;;;2.93;;
5195;SDS011;2617;51.006;12.436;2023-06-14T00:41:06;3.67;;;3.00;;
5195;SDS011;2617;51.006;12.436;2023-06-14T00:46:09;3.20;;;2.90;;
5195;SDS011;2617;51.006;12.436;2023-06-14T00:51:13;7.45;;;3.80;;
5195;SDS011;2617;51.006;12.436;2023-06-14T00:56:16;3.60;;;3.30;;
5195;SDS011;2617;51.006;12.436;2023-06-14T01:01:18;6.40;;;3.00;;
5195;SDS011;2617;51.006;12.436;2023-06-14T01:12:00;5.20;;;3.97;;
5195;SDS011;2617;51.006;12.436;2023-06-14T01:17:01;6.67;;;2.90;;
5195;SDS011;2617;51.006;12.436;2023-06-14T01:22:03;3.00;;;2.70;;
5195;SDS011;2617;51.006;12.436;2023-06-14T01:27:06;6.43;;;3.57;;
5195;SDS011;2617;51.006;12.436;2023-06-14T01:32:08;5.00;;;3.47;;
5195;SDS011;2617;51.006;12.436;2023-06-14T01:37:12;3.63;;;3.30;;
5195;SDS011;2617;51.006;12.436;2023-06-14T01:42:15;3.73;;;3.27;;
5195;SDS011;2617;51.006;12.436;2023-06-14T01:47:18;3.85;;;2.95;;
5195;SDS011;2617;51.006;12.436;2023-06-14T01:52:20;3.83;;;3.40;;
5195;SDS011;2617;51.006;12.436;2023-06-14T01:57:23;3.10;;;2.90;;
5195;SDS011;2617;51.006;12.436;2023-06-14T02:02:26;3.72;;;3.42;;
5195;SDS011;2617;51.006;12.436;2023-06-14T02:07:28;4.13;;;3.70;;
5195;SDS011;2617;51.006;12.436;2023-06-14T02:12:31;4.20;;;3.80;;
5195;SDS011;2617;51.006;12.436;2023-06-14T02:17:33;9.33;;;3.87;;
5195;SDS011;2617;51.006;12.436;2023-06-14T02:22:35;4.80;;;4.13;;
5195;SDS011;2617;51.006;12.436;2023-06-14T02:27:38;4.07;;;3.30;;
5195;SDS011;2617;51.006;12.436;2023-06-14T02:32:40;3.50;;;3.27;;
5195;SDS011;2617;51.006;12.436;2023-06-14T02:37:44;4.34;;;3.82;;
5195;SDS011;2617;51.006;12.436;2023-06-14T02:42:47;3.87;;;3.43;;
5195;SDS011;2617;51.006;12.436;2023-06-14T02:47:49;4.67;;;3.03;;
5195;SDS011;2617;51.006;12.436;2023-06-14T02:52:52;3.53;;;3.00;;
5195;SDS011;2617;51.006;12.436;2023-06-14T02:57:54;3.60;;;3.30;;
5195;SDS011;2617;51.006;12.436;2023-06-14T03:02:57;4.17;;;3.60;;
5195;SDS011;2617;51.006;12.436;2023-06-14T03:07:59;3.62;;;2.85;;
5195;SDS011;2617;51.006;12.436;2023-06-14T03:13:02;4.20;;;3.50;;
5195;SDS011;2617;51.006;12.436;2023-06-14T03:18:04;3.70;;;3.40;;
5195;SDS011;2617;51.006;12.436;2023-06-14T03:23:06;3.13;;;2.93;;
5195;SDS011;2617;51.006;12.436;2023-06-14T03:28:09;4.63;;;2.73;;
5195;SDS011;2617;51.006;12.436;2023-06-14T03:33:11;6.93;;;2.57;;
5195;SDS011;2617;51.006;12.436;2023-06-14T03:38:16;4.68;;;2.76;;
5195;SDS011;2617;51.006;12.436;2023-06-14T03:43:18;3.70;;;2.97;;
5195;SDS011;2617;51.006;12.436;2023-06-14T03:48:21;3.63;;;3.33;;
5195;SDS011;2617;51.006;12.436;2023-06-14T03:53:23;2.47;;;2.20;;
5195;SDS011;2617;51.006;12.436;2023-06-14T03:58:25;2.40;;;2.30;;
5195;SDS011;2617;51.006;12.436;2023-06-14T04:03:28;2.40;;;2.20;;
5195;SDS011;2617;51.006;12.436;2023-06-14T04:08:30;5.23;;;2.30;;
5195;SDS011;2617;51.006;12.436;2023-06-14T04:13:33;6.10;;;2.10;;
5195;SDS011;2617;51.006;12.436;2023-06-14T04:18:36;3.37;;;2.40;;
5195;SDS011;2617;51.006;12.436;2023-06-14T04:23:38;2.50;;;2.30;;
5195;SDS011;2617;51.006;12.436;2023-06-14T04:28:41;2.60;;;2.40;;
5195;SDS011;2617;51.006;12.436;2023-06-14T04:33:44;4.00;;;2.83;;
5195;SDS011;2617;51.006;12.436;2023-06-14T04:38:47;3.27;;;2.73;;
5195;SDS011;2617;51.006;12.436;2023-06-14T04:43:50;3.07;;;2.77;;
5195;SDS011;2617;51.006;12.436;2023-06-14T04:48:52;2.63;;;2.33;;
5195;SDS011;2617;51.006;12.436;2023-06-14T04:53:55;4.37;;;3.23;;
5195;SDS011;2617;51.006;12.436;2023-06-14T04:58:57;4.83;;;3.03;;
5195;SDS011;2617;51.006;12.436;2023-06-14T05:04:00;3.27;;;3.03;;
5195;SDS011;2617;51.006;12.436;2023-06-14T05:09:02;4.90;;;2.63;;
5195;SDS011;2617;51.006;12.436;2023-06-14T05:14:04;4.30;;;3.10;;
5195;SDS011;2617;51.006;12.436;2023-06-14T05:19:07;11.83;;;5.17;;
5195;SDS011;2617;51.006;12.436;2023-06-14T05:24:09;4.80;;;3.72;;
5195;SDS011;2617;51.006;12.436;2023-06-14T05:29:13;4.10;;;3.60;;
5195;SDS011;2617;51.006;12.436;2023-06-14T05:34:17;3.64;;;3.34;;
5195;SDS011;2617;51.006;12.436;2023-06-14T05:39:20;3.47;;;3.27;;
5195;SDS011;2617;51.006;12.436;2023-06-14T05:44:22;7.60;;;3.70;;
5195;SDS011;2617;51.006;12.436;2023-06-14T05:49:24;11.23;;;3.90;;
5195;SDS011;2617;51.006;12.436;2023-06-14T05:54:27;3.57;;;3.27;;
5195;SDS011;2617;51.006;12.436;2023-06-14T05:59:29;3.70;;;3.33;;
5195;SDS011;2617;51.006;12.436;2023-06-14T06:04:31;4.40;;;4.00;;
5195;SDS011;2617;51.006;12.436;2023-06-14T06:09:34;3.90;;;3.60;;
5195;SDS011;2617;51.006;12.436;2023-06-14T06:14:36;3.87;;;3.33;;
5195;SDS011;2617;51.006;12.436;2023-06-14T06:19:39;6.23;;;3.77;;
5195;SDS011;2617;51.006;12.436;2023-06-14T06:24:41;6.63;;;4.07;;
5195;SDS011;2617;51.006;12.436;2023-06-14T06:29:44;6.80;;;3.93;;
5195;SDS011;2617;51.006;12.436;2023-06-14T06:34:47;4.85;;;3.30;;
5195;SDS011;2617;51.006;12.436;2023-06-14T06:39:50;4.47;;;4.07;;
5195;SDS011;2617;51.006;12.436;2023-06-14T06:44:53;4.28;;;3.95;;
5195;SDS011;2617;51.006;12.436;2023-06-14T06:49:55;4.60;;;3.60;;
5195;SDS011;2617;51.006;12.436;2023-06-14T06:54:58;4.55;;;4.15;;
5195;SDS011;2617;51.006;12.436;2023-06-14T07:00:01;6.10;;;4.30;;
5195;SDS011;2617;51.006;12.436;2023-06-14T07:05:04;5.10;;;3.73;;
5195;SDS011;2617;51.006;12.436;2023-06-14T07:10:08;9.73;;;3.97;;
5195;SDS011;2617;51.006;12.436;2023-06-14T07:15:11;4.40;;;4.00;;
5195;SDS011;2617;51.006;12.436;2023-06-14T07:20:13;4.43;;;4.03;;
5195;SDS011;2617;51.006;12.436;2023-06-14T07:25:17;4.60;;;4.03;;
5195;SDS011;2617;51.006;12.436;2023-06-14T07:30:20;4.10;;;3.70;;
5195;SDS011;2617;51.006;12.436;2023-06-14T07:35:22;6.30;;;3.78;;
5195;SDS011;2617;51.006;12.436;2023-06-14T07:40:24;8.00;;;3.50;;
5195;SDS011;2617;51.006;12.436;2023-06-14T07:45:27;4.70;;;3.90;;
5195;SDS011;2617;51.006;12.436;2023-06-14T07:50:29;6.07;;;3.07;;
5195;SDS011;2617;51.006;12.436;2023-06-14T07:55:32;5.90;;;3.85;;
5195;SDS011;2617;51.006;12.436;2023-06-14T08:00:34;4.70;;;3.73;;
5195;SDS011;2617;51.006;12.436;2023-06-14T08:05:37;5.10;;;4.10;;
5195;SDS011;2617;51.006;12.436;2023-06-14T08:10:39;5.50;;;3.87;;
5195;SDS011;2617;51.006;12.436;2023-06-14T08:15:41;6.33;;;3.40;;
5195;SDS011;2617;51.006;12.436;2023-06-14T08:20:44;5.10;;;3.50;;
5195;SDS011;2617;51.006;12.436;2023-06-14T08:25:46;3.23;;;2.83;;
5195;SDS011;2617;51.006;12.436;2023-06-14T08:30:50;3.77;;;3.40;;
5195;SDS011;2617;51.006;12.436;2023-06-14T08:35:53;3.57;;;3.13;;
5195;SDS011;2617;51.006;12.436;2023-06-14T08:40:57;4.27;;;3.80;;
5195;SDS011;2617;51.006;12.436;2023-06-14T08:46:00;4.40;;;3.27;;
5195;SDS011;2617;51.006;12.436;2023-06-14T08:51:02;4.83;;;3.63;;
5195;SDS011;2617;51.006;12.436;2023-06-14T08:56:04;3.53;;;3.20;;
5195;SDS011;2617;51.006;12.436;2023-06-14T09:01:07;4.07;;;3.33;;
5195;SDS011;2617;51.006;12.436;2023-06-14T09:06:09;4.00;;;3.30;;
5195;SDS011;2617;51.006;12.436;2023-06-14T09:11:13;5.50;;;3.20;;
5195;SDS011;2617;51.006;12.436;2023-06-14T09:16:15;4.33;;;3.17;;
5195;SDS011;2617;51.006;12.436;2023-06-14T09:21:17;5.70;;;3.37;;
5195;SDS011;2617;51.006;12.436;2023-06-14T09:26:20;5.40;;;3.60;;
5195;SDS011;2617;51.006;12.436;2023-06-14T09:31:22;4.17;;;3.60;;
5195;SDS011;2617;51.006;12.436;2023-06-14T09:36:25;3.20;;;2.90;;
5195;SDS011;2617;51.006;12.436;2023-06-14T09:41:31;5.07;;;3.00;;
5195;SDS011;2617;51.006;12.436;2023-06-14T09:46:35;3.30;;;3.00;;
5195;SDS011;2617;51.006;12.436;2023-06-14T09:51:42;3.67;;;3.37;;
5195;SDS011;2617;51.006;12.436;2023-06-14T09:56:45;3.27;;;3.07;;
5195;SDS011;2617;51.006;12.436;2023-06-14T10:01:48;5.60;;;3.20;;
5195;SDS011;2617;51.006;12.436;2023-06-14T10:06:51;3.37;;;3.17;;
5195;SDS011;2617;51.006;12.436;2023-06-14T10:11:53;4.20;;;3.33;;
5195;SDS011;2617;51.006;12.436;2023-06-14T10:17:04;3.77;;;3.10;;
5195;SDS011;2617;51.006;12.436;2023-06-14T10:22:08;3.40;;;3.10;;
5195;SDS011;2617;51.006;12.436;2023-06-14T10:27:10;4.50;;;2.90;;
5195;SDS011;2617;51.006;12.436;2023-06-14T10:32:15;4.20;;;2.80;;
5195;SDS011;2617;51.006;12.436;2023-06-14T10:37:17;3.00;;;2.80;;
5195;SDS011;2617;51.006;12.436;2023-06-14T10:42:21;3.40;;;3.10;;
5195;SDS011;2617;51.006;12.436;2023-06-14T10:47:26;4.67;;;3.23;;
5195;SDS011;2617;51.006;12.436;2023-06-14T10:52:31;3.57;;;3.27;;
5195;SDS011;2617;51.006;12.436;2023-06-14T10:57:32;2.90;;;2.70;;
5195;SDS011;2617;51.006;12.436;2023-06-14T11:02:45;2.90;;;2.50;;
5195;SDS011;2617;51.006;12.436;2023-06-14T11:08:15;3.00;;;2.70;;
5195;SDS011;2617;51.006;12.436;2023-06-14T11:13:24;3.43;;;3.23;;
5195;SDS011;2617;51.006;12.436;2023-06-14T11:18:28;6.60;;;3.30;;
5195;SDS011;2617;51.006;12.436;2023-06-14T11:23:29;3.17;;;2.70;;
5195;SDS011;2617;51.006;12.436;2023-06-14T11:28:36;3.95;;;2.50;;
5195;SDS011;2617;51.006;12.436;2023-06-14T11:33:39;5.82;;;3.08;;
5195;SDS011;2617;51.006;12.436;2023-06-14T11:38:42;2.53;;;2.33;;
5195;SDS011;2617;51.006;12.436;2023-06-14T11:43:44;2.87;;;2.23;;
5195;SDS011;2617;51.006;12.436;2023-06-14T11:48:46;2.70;;;2.50;;
5195;SDS011;2617;51.006;12.436;2023-06-14T11:53:49;5.43;;;3.17;;
5195;SDS011;2617;51.006;12.436;2023-06-14T11:58:52;5.55;;;3.10;;
5195;SDS011;2617;51.006;12.436;2023-06-14T12:03:54;2.30;;;2.10;;
5195;SDS011;2617;51.006;12.436;2023-06-14T12:08:57;2.40;;;2.20;;
5195;SDS011;2617;51.006;12.436;2023-06-14T12:13:59;3.90;;;2.12;;
5195;SDS011;2617;51.006;12.436;2023-06-14T12:19:11;1.98;;;1.85;;
5195;SDS011;2617;51.006;12.436;2023-06-14T12:24:14;2.47;;;2.27;;
5195;SDS011;2617;51.006;12.436;2023-06-14T12:29:18;3.00;;;2.10;;
5195;SDS011;2617;51.006;12.436;2023-06-14T12:34:19;2.60;;;2.00;;
5195;SDS011;2617;51.006;12.436;2023-06-14T12:39:22;4.35;;;2.87;;
5195;SDS011;2617;51.006;12.436;2023-06-14T12:44:25;2.17;;;1.87;;
5195;SDS011;2617;51.006;12.436;2023-06-14T12:49:28;3.07;;;2.40;;
5195;SDS011;2617;51.006;12.436;2023-06-14T12:54:30;2.22;;;2.03;;
5195;SDS011;2617;51.006;12.436;2023-06-14T12:59:33;3.33;;;2.17;;
5195;SDS011;2617;51.006;12.436;2023-06-14T13:04:35;4.03;;;2.08;;
5195;SDS011;2617;51.006;12.436;2023-06-14T13:09:38;2.93;;;2.70;;
5195;SDS011;2617;51.006;12.436;2023-06-14T13:14:41;2.63;;;2.43;;
5195;SDS011;2617;51.006;12.436;2023-06-14T13:19:43;2.17;;;2.00;;
5195;SDS011;2617;51.006;12.436;2023-06-14T13:24:46;2.87;;;2.30;;
5195;SDS011;2617;51.006;12.436;2023-06-14T13:29:48;2.53;;;2.33;;
5195;SDS011;2617;51.006;12.436;2023-06-14T13:34:51;2.10;;;1.93;;
5195;SDS011;2617;51.006;12.436;2023-06-14T13:39:54;2.80;;;2.13;;
5195;SDS011;2617;51.006;12.436;2023-06-14T13:44:56;3.73;;;2.30;;
5195;SDS011;2617;51.006;12.436;2023-06-14T13:49:59;3.23;;;1.90;;
5195;SDS011;2617;51.006;12.436;2023-06-14T13:55:02;2.13;;;1.93;;
5195;SDS011;2617;51.006;12.436;2023-06-14T14:00:05;2.20;;;2.00;;
5195;SDS011;2617;51.006;12.436;2023-06-14T14:05:09;1.83;;;1.73;;
5195;SDS011;2617;51.006;12.436;2023-06-14T14:10:12;2.60;;;2.40;;
5195;SDS011;2617;51.006;12.436;2023-06-14T14:15:14;4.60;;;2.50;;
5195;SDS011;2617;51.006;12.436;2023-06-14T14:20:17;2.47;;;2.27;;
5195;SDS011;2617;51.006;12.436;2023-06-14T14:25:19;3.43;;;2.20;;
5195;SDS011;2617;51.006;12.436;2023-06-14T14:30:21;3.00;;;2.20;;
5195;SDS011;2617;51.006;12.436;2023-06-14T14:35:24;2.67;;;2.47;;
5195;SDS011;2617;51.006;12.436;2023-06-14T14:40:26;2.92;;;2.72;;
5195;SDS011;2617;51.006;12.436;2023-06-14T14:45:29;4.63;;;2.80;;
5195;SDS011;2617;51.006;12.436;2023-06-14T14:50:32;3.28;;;2.97;;
5195;SDS011;2617;51.006;12.436;2023-06-14T14:55:34;3.07;;;2.73;;
5195;SDS011;2617;51.006;12.436;2023-06-14T15:00:36;2.72;;;2.53;;
5195;SDS011;2617;51.006;12.436;2023-06-14T15:05:39;3.00;;;2.80;;
5195;SDS011;2617;51.006;12.436;2023-06-14T15:10:42;2.57;;;2.37;;
5195;SDS011;2617;51.006;12.436;2023-06-14T15:15:44;2.90;;;2.70;;
5195;SDS011;2617;51.006;12.436;2023-06-14T15:20:47;2.97;;;2.70;;
5195;SDS011;2617;51.006;12.436;2023-06-14T15:25:49;2.93;;;2.67;;
5195;SDS011;2617;51.006;12.436;2023-06-14T15:30:51;2.70;;;2.50;;
5195;SDS011;2617;51.006;12.436;2023-06-14T15:35:54;5.25;;;3.40;;
5195;SDS011;2617;51.006;12.436;2023-06-14T15:40:58;2.93;;;2.73;;
5195;SDS011;2617;51.006;12.436;2023-06-14T15:46:00;3.00;;;2.70;;
5195;SDS011;2617;51.006;12.436;2023-06-14T15:51:02;3.17;;;2.97;;
5195;SDS011;2617;51.006;12.436;2023-06-14T15:56:05;5.13;;;3.60;;
5195;SDS011;2617;51.006;12.436;2023-06-14T16:01:07;7.53;;;3.03;;
5195;SDS011;2617;51.006;12.436;2023-06-14T16:06:10;2.87;;;2.63;;
5195;SDS011;2617;51.006;12.436;2023-06-14T16:11:13;3.70;;;3.40;;
5195;SDS011;2617;51.006;12.436;2023-06-14T16:16:15;3.00;;;2.40;;
5195;SDS011;2617;51.006;12.436;2023-06-14T16:21:18;2.60;;;2.40;;
5195;SDS011;2617;51.006;12.436;2023-06-14T16:26:20;3.63;;;2.50;;
5195;SDS011;2617;51.006;12.436;2023-06-14T16:31:22;2.23;;;2.13;;
5195;SDS011;2617;51.006;12.436;2023-06-14T16:36:27;3.40;;;3.17;;
5195;SDS011;2617;51.006;12.436;2023-06-14T16:41:29;3.33;;;3.10;;
5195;SDS011;2617;51.006;12.436;2023-06-14T16:46:33;2.00;;;1.87;;
5195;SDS011;2617;51.006;12.436;2023-06-14T16:51:35;4.53;;;2.40;;
5195;SDS011;2617;51.006;12.436;2023-06-14T16:56:37;2.20;;;1.93;;
5195;SDS011;2617;51.006;12.436;2023-06-14T17:01:40;2.97;;;2.17;;
5195;SDS011;2617;51.006;12.436;2023-06-14T17:06:42;2.85;;;1.60;;
5195;SDS011;2617;51.006;12.436;2023-06-14T17:11:45;1.97;;;1.87;;
5195;SDS011;2617;51.006;12.436;2023-06-14T17:16:48;2.03;;;1.73;;
5195;SDS011;2617;51.006;12.436;2023-06-14T17:21:50;7.20;;;2.10;;
5195;SDS011;2617;51.006;12.436;2023-06-14T17:26:54;2.30;;;2.10;;
5195;SDS011;2617;51.006;12.436;2023-06-14T17:31:57;2.62;;;2.20;;
5195;SDS011;2617;51.006;12.436;2023-06-14T17:37:00;2.80;;;2.60;;
5195;SDS011;2617;51.006;12.436;2023-06-14T17:42:02;4.20;;;3.42;;
5195;SDS011;2617;51.006;12.436;2023-06-14T17:47:05;3.00;;;2.60;;
5195;SDS011;2617;51.006;12.436;2023-06-14T17:52:07;2.70;;;2.50;;
5195;SDS011;2617;51.006;12.436;2023-06-14T17:57:10;3.87;;;2.80;;
5195;SDS011;2617;51.006;12.436;2023-06-14T18:02:13;2.63;;;2.43;;
5195;SDS011;2617;51.006;12.436;2023-06-14T18:07:15;4.83;;;2.70;;
5195;SDS011;2617;51.006;12.436;2023-06-14T18:12:17;3.60;;;3.30;;
5195;SDS011;2617;51.006;12.436;2023-06-14T18:17:20;3.60;;;2.63;;
5195;SDS011;2617;51.006;12.436;2023-06-14T18:22:23;3.63;;;2.50;;
5195;SDS011;2617;51.006;12.436;2023-06-14T18:27:25;3.50;;;2.40;;
5195;SDS011;2617;51.006;12.436;2023-06-14T18:32:28;3.92;;;2.50;;
5195;SDS011;2617;51.006;12.436;2023-06-14T18:37:31;2.90;;;2.57;;
5195;SDS011;2617;51.006;12.436;2023-06-14T18:42:34;3.53;;;2.90;;
5195;SDS011;2617;51.006;12.436;2023-06-14T18:47:37;3.20;;;2.90;;
5195;SDS011;2617;51.006;12.436;2023-06-14T18:52:39;3.17;;;2.73;;
5195;SDS011;2617;51.006;12.436;2023-06-14T18:57:42;2.93;;;2.63;;
5195;SDS011;2617;51.006;12.436;2023-06-14T19:02:45;3.47;;;2.70;;
5195;SDS011;2617;51.006;12.436;2023-06-14T19:07:47;3.93;;;3.27;;
5195;SDS011;2617;51.006;12.436;2023-06-14T19:12:50;4.63;;;2.40;;
5195;SDS011;2617;51.006;12.436;2023-06-14T19:17:54;7.83;;;5.00;;
5195;SDS011;2617;51.006;12.436;2023-06-14T19:22:56;5.60;;;3.83;;
5195;SDS011;2617;51.006;12.436;2023-06-14T19:28:00;6.93;;;3.90;;
5195;SDS011;2617;51.006;12.436;2023-06-14T19:33:02;3.70;;;2.83;;
5195;SDS011;2617;51.006;12.436;2023-06-14T19:38:05;5.40;;;2.90;;
5195;SDS011;2617;51.006;12.436;2023-06-14T19:43:08;3.53;;;2.87;;
5195;SDS011;2617;51.006;12.436;2023-06-14T19:48:11;5.13;;;2.67;;
5195;SDS011;2617;51.006;12.436;2023-06-14T19:53:13;3.10;;;2.80;;
5195;SDS011;2617;51.006;12.436;2023-06-14T19:58:16;6.43;;;2.70;;
5195;SDS011;2617;51.006;12.436;2023-06-14T20:03:18;3.15;;;2.85;;
5195;SDS011;2617;51.006;12.436;2023-06-14T20:08:21;4.57;;;2.90;;
5195;SDS011;2617;51.006;12.436;2023-06-14T20:13:23;3.30;;;3.00;;
5195;SDS011;2617;51.006;12.436;2023-06-14T20:18:26;3.60;;;2.87;;
5195;SDS011;2617;51.006;12.436;2023-06-14T20:23:28;5.70;;;3.40;;
5195;SDS011;2617;51.006;12.436;2023-06-14T20:28:31;8.07;;;4.10;;
5195;SDS011;2617;51.006;12.436;2023-06-14T20:33:34;3.67;;;3.17;;
5195;SDS011;2617;51.006;12.436;2023-06-14T20:38:36;5.20;;;3.70;;
5195;SDS011;2617;51.006;12.436;2023-06-14T20:43:39;8.17;;;3.70;;
5195;SDS011;2617;51.006;12.436;2023-06-14T20:48:41;3.53;;;2.70;;
5195;SDS011;2617;51.006;12.436;2023-06-14T20:53:44;3.47;;;3.17;;
5195;SDS011;2617;51.006;12.436;2023-06-14T20:58:46;3.27;;;2.97;;
5195;SDS011;2617;51.006;12.436;2023-06-14T21:03:48;6.87;;;3.60;;
5195;SDS011;2617;51.006;12.436;2023-06-14T21:08:51;4.43;;;3.60;;
5195;SDS011;2617;51.006;12.436;2023-06-14T21:13:53;3.73;;;3.20;;
5195;SDS011;2617;51.006;12.436;2023-06-14T21:18:56;4.30;;;3.30;;
5195;SDS011;2617;51.006;12.436;2023-06-14T21:23:58;4.20;;;3.57;;
5195;SDS011;2617;51.006;12.436;2023-06-14T21:29:01;3.50;;;3.20;;
5195;SDS011;2617;51.006;12.436;2023-06-14T21:34:04;4.07;;;3.67;;
5195;SDS011;2617;51.006;12.436;2023-06-14T21:39:06;3.20;;;2.90;;
5195;SDS011;2617;51.006;12.436;2023-06-14T21:44:09;3.73;;;3.40;;
5195;SDS011;2617;51.006;12.436;2023-06-14T21:49:11;4.70;;;3.50;;
5195;SDS011;2617;51.006;12.436;2023-06-14T21:54:13;4.40;;;3.70;;
5195;SDS011;2617;51.006;12.436;2023-06-14T21:59:16;3.43;;;3.13;;
5195;SDS011;2617;51.006;12.436;2023-06-14T22:04:18;3.90;;;3.17;;
5195;SDS011;2617;51.006;12.436;2023-06-14T22:09:21;3.87;;;3.43;;
5195;SDS011;2617;51.006;12.436;2023-06-14T22:14:23;3.33;;;3.03;;
5195;SDS011;2617;51.006;12.436;2023-06-14T22:19:25;4.07;;;3.67;;
5195;SDS011;2617;51.006;12.436;2023-06-14T22:24:28;4.00;;;3.70;;
5195;SDS011;2617;51.006;12.436;2023-06-14T22:29:31;12.95;;;3.83;;
5195;SDS011;2617;51.006;12.436;2023-06-14T22:34:34;4.97;;;3.17;;
5195;SDS011;2617;51.006;12.436;2023-06-14T22:39:36;3.68;;;3.20;;
5195;SDS011;2617;51.006;12.436;2023-06-14T22:44:39;4.20;;;3.07;;
5195;SDS011;2617;51.006;12.436;2023-06-14T22:49:41;4.70;;;3.87;;
5195;SDS011;2617;51.006;12.436;2023-06-14T22:54:43;3.63;;;3.33;;
5195;SDS011;2617;51.006;12.436;2023-06-14T22:59:46;3.60;;;3.30;;
5195;SDS011;2617;51.006;12.436;2023-06-14T23:04:48;3.30;;;3.10;;
5195;SDS011;2617;51.006;12.436;2023-06-14T23:09:51;3.63;;;3.23;;
5195;SDS011;2617;51.006;12.436;2023-06-14T23:14:56;6.33;;;3.77;;
5195;SDS011;2617;51.006;12.436;2023-06-14T23:19:59;4.87;;;3.77;;
5195;SDS011;2617;51.006;12.436;2023-06-14T23:25:08;3.42;;;3.20;;
5195;SDS011;2617;51.006;12.436;2023-06-14T23:30:11;3.57;;;3.30;;
5195;SDS011;2617;51.006;12.436;2023-06-14T23:35:14;4.00;;;3.40;;
5195;SDS011;2617;51.006;12.436;2023-06-14T23:40:16;3.50;;;3.20;;
5195;SDS011;2617;51.006;12.436;2023-06-14T23:45:18;3.40;;;3.10;;
5195;SDS011;2617;51.006;12.436;2023-06-14T23:50:21;6.17;;;3.40;;
5195;SDS011;2617;51.006;12.436;2023-06-14T23:55:23;4.13;;;3.30;;
